Bookmark and Share
Track history (hours):
 

Panda

Last reported at 2014-Apr-11 15:04 UTC. Time now 2014-Apr-16 05:13 UTC.
Position N 43°42' E 004°38'.

Length 89 m; draft 3.9 m.

Type: Cargo ship. MMSI: 245014000.

NotesDate/timePositionNaut miles runAvg speedWind from/ knotsBaromVisibWave heightAir tempDewpointWater temp
2014-Apr-11 15:04N 43°42' E 004°38'0 0.1
2014-Apr-11 14:29N 43°42' E 004°38'20 5.2
2014-Apr-11 10:33N 43°23' E 004°48'7 7.0
2014-Apr-11 09:33N 43°22' E 004°58'10 4.8
2014-Apr-11 07:24N 43°12' E 004°55'7 6.8
2014-Apr-11 06:22N 43°08' E 004°48'910.3
2014-Apr-11 05:32N 43°01' E 004°40'10 9.7
2014-Apr-11 04:32N 42°53' E 004°32'29 9.7
2014-Apr-11 01:33N 42°30' E 004°09'10 9.8
2014-Apr-11 00:33N 42°22' E 004°01'29 9.8
2014-Apr-10 21:33N 41°58' E 003°38'10 9.6
2014-Apr-10 20:33N 41°50' E 003°30'9 9.4
2014-Apr-10 19:32N 41°42' E 003°22'19 9.4
2014-Apr-10 17:32N 41°27' E 003°08'9 9.1
2014-Apr-10 16:32N 41°20' E 003°00'10 9.5
2014-Apr-10 15:32N 41°13' E 002°53'9 9.2
2014-Apr-10 14:31N 41°05' E 002°45'11 9.4
2014-Apr-10 13:18N 40°56' E 002°36'810.5
2014-Apr-10 12:33N 40°49' E 002°30'9 9.1
2014-Apr-10 11:33N 40°42' E 002°23'1010.0
2014-Apr-10 10:33N 40°34' E 002°15'10 9.9
2014-Apr-10 09:33N 40°26' E 002°08'10 9.7
2014-Apr-10 08:33N 40°18' E 002°00'10 9.7
2014-Apr-10 07:33N 40°10' E 001°53'1010.1
2014-Apr-10 06:34N 40°02' E 001°45'1010.2
2014-Apr-10 05:33N 39°54' E 001°37'10 9.7
2014-Apr-10 04:30N 39°46' E 001°29'387 8.8
2014-Apr-08 08:33N 36°01' W 005°10'1111.5
2014-Apr-08 07:34N 35°59' W 005°24'  

Dump ship's entire track history

sailing weather and tide predictions

Panda — PBCS — position and weather